sensor_id;sensor_type;location;lat;lon;timestamp;P1;durP1;ratioP1;P2;durP2;ratioP2
8964;SDS011;4517;49.020;12.066;2023-12-20T00:01:54;18.30;;;16.70;;
8964;SDS011;4517;49.020;12.066;2023-12-20T00:04:20;18.00;;;16.50;;
8964;SDS011;4517;49.020;12.066;2023-12-20T00:06:46;18.13;;;16.53;;
8964;SDS011;4517;49.020;12.066;2023-12-20T00:09:11;18.47;;;16.77;;
8964;SDS011;4517;49.020;12.066;2023-12-20T00:11:37;18.20;;;16.60;;
8964;SDS011;4517;49.020;12.066;2023-12-20T00:14:03;19.33;;;17.17;;
8964;SDS011;4517;49.020;12.066;2023-12-20T00:16:29;18.50;;;16.80;;
8964;SDS011;4517;49.020;12.066;2023-12-20T00:18:56;19.23;;;17.47;;
8964;SDS011;4517;49.020;12.066;2023-12-20T00:21:22;19.17;;;17.53;;
8964;SDS011;4517;49.020;12.066;2023-12-20T00:23:48;18.80;;;17.10;;
8964;SDS011;4517;49.020;12.066;2023-12-20T00:26:14;18.10;;;16.20;;
8964;SDS011;4517;49.020;12.066;2023-12-20T00:28:40;18.40;;;16.83;;
8964;SDS011;4517;49.020;12.066;2023-12-20T00:31:07;18.53;;;16.80;;
8964;SDS011;4517;49.020;12.066;2023-12-20T00:33:33;19.60;;;17.70;;
8964;SDS011;4517;49.020;12.066;2023-12-20T00:35:59;19.40;;;17.43;;
8964;SDS011;4517;49.020;12.066;2023-12-20T00:38:25;19.10;;;17.23;;
8964;SDS011;4517;49.020;12.066;2023-12-20T00:40:51;19.60;;;17.57;;
8964;SDS011;4517;49.020;12.066;2023-12-20T00:43:17;19.07;;;17.10;;
8964;SDS011;4517;49.020;12.066;2023-12-20T00:45:43;18.73;;;17.00;;
8964;SDS011;4517;49.020;12.066;2023-12-20T00:48:09;19.80;;;17.97;;
8964;SDS011;4517;49.020;12.066;2023-12-20T00:50:35;17.47;;;16.03;;
8964;SDS011;4517;49.020;12.066;2023-12-20T00:53:01;19.30;;;17.27;;
8964;SDS011;4517;49.020;12.066;2023-12-20T00:55:27;18.97;;;17.17;;
8964;SDS011;4517;49.020;12.066;2023-12-20T00:57:53;18.10;;;16.50;;
8964;SDS011;4517;49.020;12.066;2023-12-20T01:00:19;18.73;;;16.97;;
8964;SDS011;4517;49.020;12.066;2023-12-20T01:02:45;19.23;;;17.30;;
8964;SDS011;4517;49.020;12.066;2023-12-20T01:05:14;19.83;;;17.93;;
8964;SDS011;4517;49.020;12.066;2023-12-20T01:07:40;20.97;;;19.27;;
8964;SDS011;4517;49.020;12.066;2023-12-20T01:10:06;24.17;;;22.37;;
8964;SDS011;4517;49.020;12.066;2023-12-20T01:12:32;29.97;;;27.03;;
8964;SDS011;4517;49.020;12.066;2023-12-20T01:14:58;30.47;;;27.80;;
8964;SDS011;4517;49.020;12.066;2023-12-20T01:17:24;33.13;;;30.33;;
8964;SDS011;4517;49.020;12.066;2023-12-20T01:19:49;34.63;;;31.37;;
8964;SDS011;4517;49.020;12.066;2023-12-20T01:22:15;35.20;;;32.20;;
8964;SDS011;4517;49.020;12.066;2023-12-20T01:24:41;35.67;;;32.00;;
8964;SDS011;4517;49.020;12.066;2023-12-20T01:27:07;35.10;;;31.83;;
8964;SDS011;4517;49.020;12.066;2023-12-20T01:29:33;34.10;;;31.00;;
8964;SDS011;4517;49.020;12.066;2023-12-20T01:31:59;33.47;;;30.40;;
8964;SDS011;4517;49.020;12.066;2023-12-20T01:34:25;34.90;;;31.70;;
8964;SDS011;4517;49.020;12.066;2023-12-20T01:36:51;35.07;;;31.63;;
8964;SDS011;4517;49.020;12.066;2023-12-20T01:39:17;35.17;;;31.87;;
8964;SDS011;4517;49.020;12.066;2023-12-20T01:41:43;33.23;;;30.40;;
8964;SDS011;4517;49.020;12.066;2023-12-20T01:44:10;33.97;;;30.50;;
8964;SDS011;4517;49.020;12.066;2023-12-20T01:46:36;33.93;;;30.90;;
8964;SDS011;4517;49.020;12.066;2023-12-20T01:49:02;35.50;;;32.13;;
8964;SDS011;4517;49.020;12.066;2023-12-20T01:51:28;35.23;;;31.97;;
8964;SDS011;4517;49.020;12.066;2023-12-20T01:53:55;35.53;;;31.57;;
8964;SDS011;4517;49.020;12.066;2023-12-20T01:56:21;35.67;;;32.67;;
8964;SDS011;4517;49.020;12.066;2023-12-20T01:58:47;36.23;;;32.47;;
8964;SDS011;4517;49.020;12.066;2023-12-20T02:01:14;35.27;;;32.07;;
8964;SDS011;4517;49.020;12.066;2023-12-20T02:03:41;37.07;;;33.27;;
8964;SDS011;4517;49.020;12.066;2023-12-20T02:06:08;34.50;;;31.47;;
8964;SDS011;4517;49.020;12.066;2023-12-20T02:08:34;34.90;;;31.73;;
8964;SDS011;4517;49.020;12.066;2023-12-20T02:11:00;35.40;;;32.13;;
8964;SDS011;4517;49.020;12.066;2023-12-20T02:13:26;36.60;;;33.00;;
8964;SDS011;4517;49.020;12.066;2023-12-20T02:15:52;33.23;;;30.23;;
8964;SDS011;4517;49.020;12.066;2023-12-20T02:18:18;34.50;;;31.10;;
8964;SDS011;4517;49.020;12.066;2023-12-20T02:20:44;34.83;;;31.33;;
8964;SDS011;4517;49.020;12.066;2023-12-20T02:23:10;33.53;;;30.43;;
8964;SDS011;4517;49.020;12.066;2023-12-20T02:25:36;34.27;;;31.23;;
8964;SDS011;4517;49.020;12.066;2023-12-20T02:28:02;33.77;;;30.67;;
8964;SDS011;4517;49.020;12.066;2023-12-20T02:30:28;32.30;;;29.50;;
8964;SDS011;4517;49.020;12.066;2023-12-20T02:32:54;33.37;;;29.97;;
8964;SDS011;4517;49.020;12.066;2023-12-20T02:35:21;32.43;;;29.33;;
8964;SDS011;4517;49.020;12.066;2023-12-20T02:37:47;31.90;;;28.90;;
8964;SDS011;4517;49.020;12.066;2023-12-20T02:40:12;30.33;;;27.53;;
8964;SDS011;4517;49.020;12.066;2023-12-20T02:42:38;31.23;;;28.43;;
8964;SDS011;4517;49.020;12.066;2023-12-20T02:45:04;31.60;;;28.57;;
8964;SDS011;4517;49.020;12.066;2023-12-20T02:47:31;30.30;;;27.60;;
8964;SDS011;4517;49.020;12.066;2023-12-20T02:49:56;31.60;;;28.70;;
8964;SDS011;4517;49.020;12.066;2023-12-20T02:52:23;31.67;;;28.77;;
8964;SDS011;4517;49.020;12.066;2023-12-20T02:54:49;32.70;;;29.53;;
8964;SDS011;4517;49.020;12.066;2023-12-20T02:57:15;30.87;;;28.17;;
8964;SDS011;4517;49.020;12.066;2023-12-20T02:59:41;30.90;;;28.00;;
8964;SDS011;4517;49.020;12.066;2023-12-20T03:02:07;30.50;;;27.70;;
8964;SDS011;4517;49.020;12.066;2023-12-20T03:04:33;31.30;;;28.33;;
8964;SDS011;4517;49.020;12.066;2023-12-20T03:06:59;30.33;;;27.63;;
8964;SDS011;4517;49.020;12.066;2023-12-20T03:09:25;30.57;;;27.80;;
8964;SDS011;4517;49.020;12.066;2023-12-20T03:11:51;31.27;;;28.00;;
8964;SDS011;4517;49.020;12.066;2023-12-20T03:14:17;30.77;;;28.03;;
8964;SDS011;4517;49.020;12.066;2023-12-20T03:16:46;30.57;;;27.87;;
8964;SDS011;4517;49.020;12.066;2023-12-20T03:19:12;29.90;;;27.17;;
8964;SDS011;4517;49.020;12.066;2023-12-20T03:21:38;30.23;;;27.63;;
8964;SDS011;4517;49.020;12.066;2023-12-20T03:24:04;31.07;;;28.13;;
8964;SDS011;4517;49.020;12.066;2023-12-20T03:26:30;31.10;;;28.40;;
8964;SDS011;4517;49.020;12.066;2023-12-20T03:28:56;30.40;;;27.80;;
8964;SDS011;4517;49.020;12.066;2023-12-20T03:31:22;30.83;;;28.03;;
8964;SDS011;4517;49.020;12.066;2023-12-20T03:33:48;30.17;;;27.37;;
8964;SDS011;4517;49.020;12.066;2023-12-20T03:36:15;31.97;;;29.27;;
8964;SDS011;4517;49.020;12.066;2023-12-20T03:38:41;32.87;;;30.03;;
8964;SDS011;4517;49.020;12.066;2023-12-20T03:41:07;32.73;;;29.83;;
8964;SDS011;4517;49.020;12.066;2023-12-20T03:43:33;32.90;;;30.10;;
8964;SDS011;4517;49.020;12.066;2023-12-20T03:45:59;33.27;;;30.50;;
8964;SDS011;4517;49.020;12.066;2023-12-20T03:48:25;32.87;;;30.07;;
8964;SDS011;4517;49.020;12.066;2023-12-20T03:50:51;34.07;;;31.17;;
8964;SDS011;4517;49.020;12.066;2023-12-20T03:53:17;34.07;;;31.27;;
8964;SDS011;4517;49.020;12.066;2023-12-20T03:55:43;34.23;;;31.27;;
8964;SDS011;4517;49.020;12.066;2023-12-20T03:58:09;33.70;;;31.00;;
8964;SDS011;4517;49.020;12.066;2023-12-20T04:00:35;36.20;;;33.30;;
8964;SDS011;4517;49.020;12.066;2023-12-20T04:03:01;35.37;;;32.60;;
8964;SDS011;4517;49.020;12.066;2023-12-20T04:05:27;35.60;;;33.10;;
8964;SDS011;4517;49.020;12.066;2023-12-20T04:07:53;37.33;;;34.27;;
8964;SDS011;4517;49.020;12.066;2023-12-20T04:10:19;35.60;;;32.60;;
8964;SDS011;4517;49.020;12.066;2023-12-20T04:12:45;37.47;;;34.77;;
8964;SDS011;4517;49.020;12.066;2023-12-20T04:15:10;35.93;;;33.43;;
8964;SDS011;4517;49.020;12.066;2023-12-20T04:17:37;37.10;;;34.60;;
8964;SDS011;4517;49.020;12.066;2023-12-20T04:20:03;39.77;;;37.00;;
8964;SDS011;4517;49.020;12.066;2023-12-20T04:22:29;39.07;;;36.20;;
8964;SDS011;4517;49.020;12.066;2023-12-20T04:24:55;37.40;;;34.80;;
8964;SDS011;4517;49.020;12.066;2023-12-20T04:27:21;37.60;;;35.00;;
8964;SDS011;4517;49.020;12.066;2023-12-20T04:29:46;38.30;;;35.60;;
8964;SDS011;4517;49.020;12.066;2023-12-20T04:32:12;37.10;;;34.50;;
8964;SDS011;4517;49.020;12.066;2023-12-20T04:34:38;36.80;;;34.07;;
8964;SDS011;4517;49.020;12.066;2023-12-20T04:37:04;38.53;;;35.83;;
8964;SDS011;4517;49.020;12.066;2023-12-20T04:39:30;38.93;;;35.93;;
8964;SDS011;4517;49.020;12.066;2023-12-20T04:41:56;37.50;;;34.90;;
8964;SDS011;4517;49.020;12.066;2023-12-20T04:44:22;38.07;;;35.27;;
8964;SDS011;4517;49.020;12.066;2023-12-20T04:46:48;37.63;;;34.93;;
8964;SDS011;4517;49.020;12.066;2023-12-20T04:49:14;37.83;;;35.23;;
8964;SDS011;4517;49.020;12.066;2023-12-20T04:51:40;37.70;;;34.93;;
8964;SDS011;4517;49.020;12.066;2023-12-20T04:54:06;38.00;;;35.20;;
8964;SDS011;4517;49.020;12.066;2023-12-20T04:56:32;39.03;;;36.03;;
8964;SDS011;4517;49.020;12.066;2023-12-20T04:58:58;37.93;;;35.07;;
8964;SDS011;4517;49.020;12.066;2023-12-20T05:01:24;39.23;;;36.27;;
8964;SDS011;4517;49.020;12.066;2023-12-20T05:03:50;36.20;;;33.80;;
8964;SDS011;4517;49.020;12.066;2023-12-20T05:06:16;37.90;;;35.40;;
8964;SDS011;4517;49.020;12.066;2023-12-20T05:08:42;37.43;;;34.73;;
8964;SDS011;4517;49.020;12.066;2023-12-20T05:11:08;38.40;;;35.67;;
8964;SDS011;4517;49.020;12.066;2023-12-20T05:13:34;38.53;;;35.63;;
8964;SDS011;4517;49.020;12.066;2023-12-20T05:16:00;38.13;;;35.53;;
8964;SDS011;4517;49.020;12.066;2023-12-20T05:18:26;36.80;;;34.20;;
8964;SDS011;4517;49.020;12.066;2023-12-20T05:20:52;36.93;;;34.43;;
8964;SDS011;4517;49.020;12.066;2023-12-20T05:23:18;36.13;;;33.77;;
8964;SDS011;4517;49.020;12.066;2023-12-20T05:25:45;37.17;;;34.77;;
8964;SDS011;4517;49.020;12.066;2023-12-20T05:28:11;37.93;;;35.33;;
8964;SDS011;4517;49.020;12.066;2023-12-20T05:30:37;34.90;;;32.60;;
8964;SDS011;4517;49.020;12.066;2023-12-20T05:33:03;35.10;;;32.70;;
8964;SDS011;4517;49.020;12.066;2023-12-20T05:35:29;34.60;;;31.73;;
8964;SDS011;4517;49.020;12.066;2023-12-20T05:37:55;34.80;;;32.40;;
8964;SDS011;4517;49.020;12.066;2023-12-20T05:40:21;34.80;;;32.23;;
8964;SDS011;4517;49.020;12.066;2023-12-20T05:42:47;32.97;;;30.77;;
8964;SDS011;4517;49.020;12.066;2023-12-20T05:45:14;34.13;;;31.83;;
8964;SDS011;4517;49.020;12.066;2023-12-20T05:47:40;33.23;;;30.93;;
8964;SDS011;4517;49.020;12.066;2023-12-20T05:50:06;34.57;;;32.10;;
8964;SDS011;4517;49.020;12.066;2023-12-20T05:52:32;33.37;;;30.97;;
8964;SDS011;4517;49.020;12.066;2023-12-20T05:54:58;33.83;;;31.43;;
8964;SDS011;4517;49.020;12.066;2023-12-20T05:57:26;32.37;;;29.87;;
8964;SDS011;4517;49.020;12.066;2023-12-20T05:59:52;32.07;;;29.87;;
8964;SDS011;4517;49.020;12.066;2023-12-20T06:02:18;30.93;;;28.80;;
8964;SDS011;4517;49.020;12.066;2023-12-20T06:04:44;33.10;;;30.90;;
8964;SDS011;4517;49.020;12.066;2023-12-20T06:07:13;32.80;;;30.40;;
8964;SDS011;4517;49.020;12.066;2023-12-20T06:09:40;33.33;;;31.10;;
8964;SDS011;4517;49.020;12.066;2023-12-20T06:12:06;34.00;;;31.50;;
8964;SDS011;4517;49.020;12.066;2023-12-20T06:14:33;33.50;;;31.20;;
8964;SDS011;4517;49.020;12.066;2023-12-20T06:16:59;33.57;;;31.23;;
8964;SDS011;4517;49.020;12.066;2023-12-20T06:19:26;30.97;;;28.80;;
8964;SDS011;4517;49.020;12.066;2023-12-20T06:21:52;32.50;;;30.10;;
8964;SDS011;4517;49.020;12.066;2023-12-20T06:24:18;32.07;;;29.97;;
8964;SDS011;4517;49.020;12.066;2023-12-20T06:26:44;32.77;;;30.57;;
8964;SDS011;4517;49.020;12.066;2023-12-20T06:29:09;32.33;;;29.90;;
8964;SDS011;4517;49.020;12.066;2023-12-20T06:31:35;30.57;;;28.57;;
8964;SDS011;4517;49.020;12.066;2023-12-20T06:34:01;31.20;;;29.20;;
8964;SDS011;4517;49.020;12.066;2023-12-20T06:36:28;30.43;;;28.53;;
8964;SDS011;4517;49.020;12.066;2023-12-20T06:38:54;29.37;;;27.53;;
8964;SDS011;4517;49.020;12.066;2023-12-20T06:41:20;29.50;;;27.60;;
8964;SDS011;4517;49.020;12.066;2023-12-20T06:43:46;28.77;;;27.00;;
8964;SDS011;4517;49.020;12.066;2023-12-20T06:46:12;27.83;;;25.90;;
8964;SDS011;4517;49.020;12.066;2023-12-20T06:48:38;29.47;;;27.40;;
8964;SDS011;4517;49.020;12.066;2023-12-20T06:51:05;30.47;;;28.57;;
8964;SDS011;4517;49.020;12.066;2023-12-20T06:53:31;30.10;;;28.20;;
8964;SDS011;4517;49.020;12.066;2023-12-20T06:55:57;29.50;;;27.70;;
8964;SDS011;4517;49.020;12.066;2023-12-20T06:58:23;29.30;;;27.30;;
8964;SDS011;4517;49.020;12.066;2023-12-20T07:00:50;29.13;;;27.23;;
8964;SDS011;4517;49.020;12.066;2023-12-20T07:03:16;27.83;;;25.97;;
8964;SDS011;4517;49.020;12.066;2023-12-20T07:05:43;25.40;;;23.70;;
8964;SDS011;4517;49.020;12.066;2023-12-20T07:08:09;27.20;;;25.60;;
8964;SDS011;4517;49.020;12.066;2023-12-20T07:10:35;25.70;;;24.00;;
8964;SDS011;4517;49.020;12.066;2023-12-20T07:13:01;24.30;;;22.73;;
8964;SDS011;4517;49.020;12.066;2023-12-20T07:15:28;25.43;;;23.83;;
8964;SDS011;4517;49.020;12.066;2023-12-20T07:17:54;25.03;;;23.53;;
8964;SDS011;4517;49.020;12.066;2023-12-20T07:20:20;24.13;;;22.73;;
8964;SDS011;4517;49.020;12.066;2023-12-20T07:22:46;24.10;;;22.70;;
8964;SDS011;4517;49.020;12.066;2023-12-20T07:25:12;24.13;;;22.73;;
8964;SDS011;4517;49.020;12.066;2023-12-20T07:27:38;24.37;;;22.97;;
8964;SDS011;4517;49.020;12.066;2023-12-20T07:30:04;27.00;;;25.37;;
8964;SDS011;4517;49.020;12.066;2023-12-20T07:32:30;24.17;;;22.77;;
8964;SDS011;4517;49.020;12.066;2023-12-20T07:34:57;25.97;;;24.47;;
8964;SDS011;4517;49.020;12.066;2023-12-20T07:37:23;24.80;;;23.40;;
8964;SDS011;4517;49.020;12.066;2023-12-20T07:39:49;22.90;;;21.50;;
8964;SDS011;4517;49.020;12.066;2023-12-20T07:42:15;25.70;;;24.20;;
8964;SDS011;4517;49.020;12.066;2023-12-20T07:44:41;25.37;;;23.87;;
8964;SDS011;4517;49.020;12.066;2023-12-20T07:47:07;26.13;;;24.63;;
8964;SDS011;4517;49.020;12.066;2023-12-20T07:49:33;23.93;;;22.53;;
8964;SDS011;4517;49.020;12.066;2023-12-20T07:51:59;25.47;;;23.97;;
8964;SDS011;4517;49.020;12.066;2023-12-20T07:54:25;24.37;;;22.90;;
8964;SDS011;4517;49.020;12.066;2023-12-20T07:56:51;26.30;;;24.80;;
8964;SDS011;4517;49.020;12.066;2023-12-20T07:59:17;25.43;;;24.03;;
8964;SDS011;4517;49.020;12.066;2023-12-20T08:01:43;24.43;;;23.03;;
8964;SDS011;4517;49.020;12.066;2023-12-20T08:04:09;25.80;;;24.30;;
8964;SDS011;4517;49.020;12.066;2023-12-20T08:06:35;25.03;;;23.53;;
8964;SDS011;4517;49.020;12.066;2023-12-20T08:09:01;25.47;;;24.00;;
8964;SDS011;4517;49.020;12.066;2023-12-20T08:11:27;29.70;;;27.97;;
8964;SDS011;4517;49.020;12.066;2023-12-20T08:13:54;25.20;;;23.80;;
8964;SDS011;4517;49.020;12.066;2023-12-20T08:16:20;25.67;;;24.20;;
8964;SDS011;4517;49.020;12.066;2023-12-20T08:18:47;25.90;;;24.40;;
8964;SDS011;4517;49.020;12.066;2023-12-20T08:21:13;31.03;;;29.23;;
8964;SDS011;4517;49.020;12.066;2023-12-20T08:23:39;24.10;;;22.70;;
8964;SDS011;4517;49.020;12.066;2023-12-20T08:26:08;25.33;;;23.83;;
8964;SDS011;4517;49.020;12.066;2023-12-20T08:28:34;23.00;;;21.70;;
8964;SDS011;4517;49.020;12.066;2023-12-20T08:31:00;23.80;;;22.30;;
8964;SDS011;4517;49.020;12.066;2023-12-20T08:33:26;23.30;;;22.00;;
8964;SDS011;4517;49.020;12.066;2023-12-20T08:35:52;24.00;;;22.50;;
8964;SDS011;4517;49.020;12.066;2023-12-20T08:38:18;25.30;;;23.60;;
8964;SDS011;4517;49.020;12.066;2023-12-20T08:40:44;22.47;;;21.17;;
8964;SDS011;4517;49.020;12.066;2023-12-20T08:43:10;22.90;;;21.50;;
8964;SDS011;4517;49.020;12.066;2023-12-20T08:45:36;23.90;;;22.40;;
8964;SDS011;4517;49.020;12.066;2023-12-20T08:48:02;24.67;;;23.17;;
8964;SDS011;4517;49.020;12.066;2023-12-20T08:50:28;25.63;;;24.00;;
8964;SDS011;4517;49.020;12.066;2023-12-20T08:52:54;25.70;;;24.20;;
8964;SDS011;4517;49.020;12.066;2023-12-20T08:55:20;24.27;;;22.77;;
8964;SDS011;4517;49.020;12.066;2023-12-20T08:57:46;24.70;;;23.03;;
8964;SDS011;4517;49.020;12.066;2023-12-20T09:00:13;24.67;;;22.93;;
8964;SDS011;4517;49.020;12.066;2023-12-20T09:02:39;25.70;;;24.20;;
8964;SDS011;4517;49.020;12.066;2023-12-20T09:05:05;25.90;;;24.40;;
8964;SDS011;4517;49.020;12.066;2023-12-20T09:07:31;24.97;;;23.47;;
8964;SDS011;4517;49.020;12.066;2023-12-20T09:09:57;27.27;;;25.57;;
8964;SDS011;4517;49.020;12.066;2023-12-20T09:12:23;25.97;;;24.47;;
8964;SDS011;4517;49.020;12.066;2023-12-20T09:14:50;28.17;;;26.10;;
8964;SDS011;4517;49.020;12.066;2023-12-20T09:17:17;25.80;;;24.23;;
8964;SDS011;4517;49.020;12.066;2023-12-20T09:19:43;27.40;;;25.30;;
8964;SDS011;4517;49.020;12.066;2023-12-20T09:22:09;26.50;;;24.90;;
8964;SDS011;4517;49.020;12.066;2023-12-20T09:24:35;27.27;;;25.67;;
8964;SDS011;4517;49.020;12.066;2023-12-20T09:27:01;26.83;;;25.17;;
8964;SDS011;4517;49.020;12.066;2023-12-20T09:29:28;24.97;;;23.43;;
8964;SDS011;4517;49.020;12.066;2023-12-20T09:31:54;26.40;;;24.70;;
8964;SDS011;4517;49.020;12.066;2023-12-20T09:34:22;27.20;;;25.50;;
8964;SDS011;4517;49.020;12.066;2023-12-20T09:36:48;25.60;;;24.10;;
8964;SDS011;4517;49.020;12.066;2023-12-20T09:39:14;25.47;;;22.90;;
8964;SDS011;4517;49.020;12.066;2023-12-20T09:41:43;25.63;;;24.03;;
8964;SDS011;4517;49.020;12.066;2023-12-20T09:44:14;25.50;;;23.80;;
8964;SDS011;4517;49.020;12.066;2023-12-20T09:46:43;24.80;;;23.40;;
8964;SDS011;4517;49.020;12.066;2023-12-20T09:49:09;25.37;;;23.80;;
8964;SDS011;4517;49.020;12.066;2023-12-20T09:51:36;26.67;;;24.97;;
8964;SDS011;4517;49.020;12.066;2023-12-20T09:54:05;25.57;;;24.17;;
8964;SDS011;4517;49.020;12.066;2023-12-20T09:56:31;24.53;;;22.90;;
8964;SDS011;4517;49.020;12.066;2023-12-20T09:58:57;24.30;;;22.63;;
8964;SDS011;4517;49.020;12.066;2023-12-20T10:01:26;23.90;;;22.30;;
8964;SDS011;4517;49.020;12.066;2023-12-20T10:03:54;25.53;;;23.70;;
8964;SDS011;4517;49.020;12.066;2023-12-20T10:06:20;24.70;;;23.20;;
8964;SDS011;4517;49.020;12.066;2023-12-20T10:08:46;23.63;;;21.77;;
8964;SDS011;4517;49.020;12.066;2023-12-20T10:11:12;22.37;;;20.97;;
8964;SDS011;4517;49.020;12.066;2023-12-20T10:13:39;23.60;;;21.67;;
8964;SDS011;4517;49.020;12.066;2023-12-20T10:16:06;20.73;;;19.40;;
8964;SDS011;4517;49.020;12.066;2023-12-20T10:18:35;26.13;;;24.53;;
8964;SDS011;4517;49.020;12.066;2023-12-20T10:21:01;21.27;;;19.97;;
8964;SDS011;4517;49.020;12.066;2023-12-20T10:23:28;20.00;;;18.60;;
8964;SDS011;4517;49.020;12.066;2023-12-20T10:25:57;20.43;;;19.03;;
8964;SDS011;4517;49.020;12.066;2023-12-20T10:28:23;20.30;;;19.10;;
8964;SDS011;4517;49.020;12.066;2023-12-20T10:30:58;20.53;;;19.23;;
8964;SDS011;4517;49.020;12.066;2023-12-20T10:33:25;20.37;;;19.17;;
8964;SDS011;4517;49.020;12.066;2023-12-20T10:35:51;20.30;;;19.10;;
8964;SDS011;4517;49.020;12.066;2023-12-20T10:38:17;20.10;;;19.00;;
8964;SDS011;4517;49.020;12.066;2023-12-20T10:40:43;20.17;;;18.97;;
8964;SDS011;4517;49.020;12.066;2023-12-20T10:43:10;19.10;;;18.10;;
8964;SDS011;4517;49.020;12.066;2023-12-20T10:45:36;19.70;;;18.50;;
8964;SDS011;4517;49.020;12.066;2023-12-20T10:48:03;20.83;;;19.63;;
8964;SDS011;4517;49.020;12.066;2023-12-20T10:50:29;19.80;;;18.60;;
8964;SDS011;4517;49.020;12.066;2023-12-20T10:52:56;19.97;;;18.80;;
8964;SDS011;4517;49.020;12.066;2023-12-20T10:55:25;19.93;;;18.67;;
8964;SDS011;4517;49.020;12.066;2023-12-20T10:57:51;21.23;;;20.10;;
8964;SDS011;4517;49.020;12.066;2023-12-20T11:00:18;20.23;;;19.03;;
8964;SDS011;4517;49.020;12.066;2023-12-20T11:02:44;21.93;;;20.63;;
8964;SDS011;4517;49.020;12.066;2023-12-20T11:05:28;21.63;;;20.43;;
8964;SDS011;4517;49.020;12.066;2023-12-20T11:08:03;21.57;;;20.27;;
8964;SDS011;4517;49.020;12.066;2023-12-20T11:10:35;21.60;;;20.40;;
8964;SDS011;4517;49.020;12.066;2023-12-20T11:15:29;20.60;;;19.30;;
8964;SDS011;4517;49.020;12.066;2023-12-20T11:17:56;19.67;;;18.47;;
8964;SDS011;4517;49.020;12.066;2023-12-20T11:20:22;21.80;;;20.43;;
8964;SDS011;4517;49.020;12.066;2023-12-20T11:22:52;21.70;;;20.40;;
8964;SDS011;4517;49.020;12.066;2023-12-20T11:25:18;21.97;;;19.73;;
8964;SDS011;4517;49.020;12.066;2023-12-20T11:27:46;20.20;;;19.10;;
8964;SDS011;4517;49.020;12.066;2023-12-20T11:30:40;20.13;;;18.83;;
8964;SDS011;4517;49.020;12.066;2023-12-20T11:33:07;21.07;;;19.67;;
8964;SDS011;4517;49.020;12.066;2023-12-20T11:35:33;18.97;;;17.67;;
8964;SDS011;4517;49.020;12.066;2023-12-20T11:38:01;18.30;;;17.00;;
8964;SDS011;4517;49.020;12.066;2023-12-20T11:40:27;18.17;;;17.07;;
8964;SDS011;4517;49.020;12.066;2023-12-20T11:42:53;16.87;;;15.63;;
8964;SDS011;4517;49.020;12.066;2023-12-20T11:45:20;16.97;;;15.67;;
8964;SDS011;4517;49.020;12.066;2023-12-20T11:47:47;15.90;;;14.70;;
8964;SDS011;4517;49.020;12.066;2023-12-20T11:50:17;14.30;;;13.50;;
8964;SDS011;4517;49.020;12.066;2023-12-20T11:52:43;15.67;;;14.53;;
8964;SDS011;4517;49.020;12.066;2023-12-20T11:55:09;14.63;;;13.50;;
8964;SDS011;4517;49.020;12.066;2023-12-20T11:57:35;15.57;;;14.13;;
8964;SDS011;4517;49.020;12.066;2023-12-20T12:00:02;14.50;;;13.43;;
8964;SDS011;4517;49.020;12.066;2023-12-20T12:02:28;14.57;;;13.43;;
8964;SDS011;4517;49.020;12.066;2023-12-20T12:04:54;14.07;;;12.40;;
8964;SDS011;4517;49.020;12.066;2023-12-20T12:07:21;20.73;;;19.53;;
8964;SDS011;4517;49.020;12.066;2023-12-20T12:09:47;14.07;;;12.87;;
8964;SDS011;4517;49.020;12.066;2023-12-20T12:12:13;13.53;;;12.47;;
8964;SDS011;4517;49.020;12.066;2023-12-20T12:14:40;13.83;;;12.53;;
8964;SDS011;4517;49.020;12.066;2023-12-20T12:17:12;13.83;;;13.03;;
8964;SDS011;4517;49.020;12.066;2023-12-20T12:19:39;13.30;;;12.30;;
8964;SDS011;4517;49.020;12.066;2023-12-20T12:22:05;13.67;;;12.53;;
8964;SDS011;4517;49.020;12.066;2023-12-20T12:24:33;14.03;;;12.90;;
8964;SDS011;4517;49.020;12.066;2023-12-20T12:26:59;13.70;;;12.80;;
8964;SDS011;4517;49.020;12.066;2023-12-20T12:29:25;13.33;;;12.40;;
8964;SDS011;4517;49.020;12.066;2023-12-20T12:31:51;13.67;;;12.87;;
8964;SDS011;4517;49.020;12.066;2023-12-20T12:34:17;13.10;;;12.30;;
8964;SDS011;4517;49.020;12.066;2023-12-20T12:36:43;14.23;;;13.13;;
8964;SDS011;4517;49.020;12.066;2023-12-20T12:39:12;13.43;;;12.50;;
8964;SDS011;4517;49.020;12.066;2023-12-20T12:41:40;13.60;;;12.80;;
8964;SDS011;4517;49.020;12.066;2023-12-20T12:44:06;15.13;;;13.10;;
8964;SDS011;4517;49.020;12.066;2023-12-20T12:46:32;13.93;;;13.03;;
8964;SDS011;4517;49.020;12.066;2023-12-20T12:48:58;14.10;;;13.10;;
8964;SDS011;4517;49.020;12.066;2023-12-20T12:51:24;15.60;;;14.60;;
8964;SDS011;4517;49.020;12.066;2023-12-20T12:53:50;13.40;;;12.40;;
8964;SDS011;4517;49.020;12.066;2023-12-20T12:56:16;13.07;;;12.13;;
8964;SDS011;4517;49.020;12.066;2023-12-20T12:58:42;13.63;;;12.43;;
8964;SDS011;4517;49.020;12.066;2023-12-20T13:01:08;14.00;;;12.93;;
8964;SDS011;4517;49.020;12.066;2023-12-20T13:03:35;13.10;;;12.03;;
8964;SDS011;4517;49.020;12.066;2023-12-20T13:06:01;12.90;;;12.20;;
8964;SDS011;4517;49.020;12.066;2023-12-20T13:08:27;13.97;;;12.77;;
8964;SDS011;4517;49.020;12.066;2023-12-20T13:10:54;13.30;;;12.20;;
8964;SDS011;4517;49.020;12.066;2023-12-20T13:13:22;14.40;;;12.87;;
8964;SDS011;4517;49.020;12.066;2023-12-20T13:15:48;13.30;;;12.40;;
8964;SDS011;4517;49.020;12.066;2023-12-20T13:18:17;13.53;;;12.50;;
8964;SDS011;4517;49.020;12.066;2023-12-20T13:20:44;13.40;;;12.50;;
8964;SDS011;4517;49.020;12.066;2023-12-20T13:23:10;13.50;;;12.60;;
8964;SDS011;4517;49.020;12.066;2023-12-20T13:25:36;13.10;;;12.20;;
8964;SDS011;4517;49.020;12.066;2023-12-20T13:28:02;14.00;;;13.10;;
8964;SDS011;4517;49.020;12.066;2023-12-20T13:30:28;15.47;;;13.80;;
8964;SDS011;4517;49.020;12.066;2023-12-20T13:32:55;14.07;;;12.93;;
8964;SDS011;4517;49.020;12.066;2023-12-20T13:35:20;13.17;;;12.27;;
8964;SDS011;4517;49.020;12.066;2023-12-20T13:37:46;13.67;;;12.67;;
8964;SDS011;4517;49.020;12.066;2023-12-20T13:40:12;13.20;;;12.47;;
8964;SDS011;4517;49.020;12.066;2023-12-20T13:42:39;13.70;;;12.80;;
8964;SDS011;4517;49.020;12.066;2023-12-20T13:45:05;16.83;;;15.70;;
8964;SDS011;4517;49.020;12.066;2023-12-20T13:47:32;13.80;;;12.80;;
8964;SDS011;4517;49.020;12.066;2023-12-20T13:49:58;14.00;;;13.20;;
8964;SDS011;4517;49.020;12.066;2023-12-20T13:52:24;13.70;;;13.00;;
8964;SDS011;4517;49.020;12.066;2023-12-20T13:54:50;14.10;;;13.20;;
8964;SDS011;4517;49.020;12.066;2023-12-20T13:57:16;15.30;;;14.23;;
8964;SDS011;4517;49.020;12.066;2023-12-20T13:59:42;14.10;;;13.20;;
8964;SDS011;4517;49.020;12.066;2023-12-20T14:02:08;13.30;;;12.20;;
8964;SDS011;4517;49.020;12.066;2023-12-20T14:04:34;13.10;;;12.40;;
8964;SDS011;4517;49.020;12.066;2023-12-20T14:07:00;13.97;;;12.73;;
8964;SDS011;4517;49.020;12.066;2023-12-20T14:09:26;14.57;;;13.40;;
8964;SDS011;4517;49.020;12.066;2023-12-20T14:11:52;13.50;;;12.73;;
8964;SDS011;4517;49.020;12.066;2023-12-20T14:14:19;13.37;;;12.50;;
8964;SDS011;4517;49.020;12.066;2023-12-20T14:16:45;16.80;;;15.83;;
8964;SDS011;4517;49.020;12.066;2023-12-20T14:19:11;14.30;;;13.13;;
8964;SDS011;4517;49.020;12.066;2023-12-20T14:21:37;14.03;;;13.23;;
8964;SDS011;4517;49.020;12.066;2023-12-20T14:24:03;15.00;;;14.10;;
8964;SDS011;4517;49.020;12.066;2023-12-20T14:26:30;13.43;;;12.57;;
8964;SDS011;4517;49.020;12.066;2023-12-20T14:28:56;15.07;;;13.77;;
8964;SDS011;4517;49.020;12.066;2023-12-20T14:31:22;14.10;;;13.20;;